Time;durP1;ratioP1;P1;durP2;ratioP2;P2;SDS_P1;SDS_P2;PMS_P1;PMS_P2;Temp;Humidity;BMP_temperature;BMP_pressure;BME280_temperature;BME280_humidity;BME280_pressure;Samples;Min_cycle;Max_cycle;Signal;HPM_P1;HPM_P2
2022/05/23 00:00:26;;;;;;;2.95;1.30;;;;;;;;;;5027220;28;20401;-71
2022/05/23 00:02:52;;;;;;;3.08;1.20;;;;;;;;;;5009006;28;22634;-72
2022/05/23 00:05:18;;;;;;;4.95;1.70;;;;;;;;;;5026465;28;20063;-72
2022/05/23 00:07:46;;;;;;;3.88;1.10;;;;;;;;;;5026379;28;20032;-72
2022/05/23 00:10:14;;;;;;;8.25;1.20;;;;;;;;;;5026009;28;20043;-70
2022/05/23 00:12:40;;;;;;;3.53;1.60;;;;;;;;;;5027393;28;20029;-71
2022/05/23 00:15:08;;;;;;;4.72;1.50;;;;;;;;;;5026553;28;20052;-71
2022/05/23 00:17:35;;;;;;;6.05;1.55;;;;;;;;;;5025246;28;20160;-71
2022/05/23 00:20:08;;;;;;;1.50;1.08;;;;;;;;;;5025824;28;21615;-73
2022/05/23 00:22:34;;;;;;;2.78;1.30;;;;;;;;;;5027721;28;20061;-71
2022/05/23 00:24:59;;;;;;;6.20;1.48;;;;;;;;;;5026739;28;20037;-72
2022/05/23 00:27:25;;;;;;;5.15;1.40;;;;;;;;;;5025805;28;20090;-72
2022/05/23 00:29:51;;;;;;;1.98;1.17;;;;;;;;;;5027128;28;20045;-72
2022/05/23 00:35:20;;;;;;;3.13;1.40;;;;;;;;;;5025650;28;20422;-72
2022/05/23 00:37:46;;;;;;;3.42;1.33;;;;;;;;;;5027086;28;20037;-72
2022/05/23 00:40:30;;;;;;;4.88;1.15;;;;;;;;;;5021658;28;20049;-71
2022/05/23 00:43:13;;;;;;;2.03;1.02;;;;;;;;;;5027423;28;20037;-71
2022/05/23 00:46:00;;;;;;;3.50;1.55;;;;;;;;;;5024147;28;20045;-72
2022/05/23 00:48:28;;;;;;;3.20;1.33;;;;;;;;;;5026208;28;20041;-72
2022/05/23 00:51:00;;;;;;;4.50;1.60;;;;;;;;;;5029808;28;20041;-72
2022/05/23 00:53:31;;;;;;;2.20;1.17;;;;;;;;;;5030426;28;20388;-71
2022/05/23 00:55:58;;;;;;;2.65;1.20;;;;;;;;;;5028960;28;20109;-71
2022/05/23 00:58:33;;;;;;;4.53;1.58;;;;;;;;;;5026375;28;21082;-72
2022/05/23 01:01:04;;;;;;;4.05;1.40;;;;;;;;;;5026661;28;20648;-73
2022/05/23 01:03:30;;;;;;;3.20;1.58;;;;;;;;;;5023719;28;20918;-72
2022/05/23 01:05:56;;;;;;;1.33;1.10;;;;;;;;;;5029276;28;20064;-72
2022/05/23 01:08:22;;;;;;;1.80;1.10;;;;;;;;;;5025323;28;20190;-72
2022/05/23 01:10:48;;;;;;;2.38;1.23;;;;;;;;;;5026443;28;20045;-71
2022/05/23 01:13:15;;;;;;;3.60;1.38;;;;;;;;;;5026090;28;20037;-71
2022/05/23 01:15:47;;;;;;;3.13;1.50;;;;;;;;;;5024776;28;20079;-72
2022/05/23 01:18:14;;;;;;;1.98;1.33;;;;;;;;;;5024783;28;21026;-72
2022/05/23 01:20:39;;;;;;;2.33;1.10;;;;;;;;;;5023749;28;20312;-71
2022/05/23 01:23:30;;;;;;;2.47;1.40;;;;;;;;;;5026073;28;20656;-72
2022/05/23 01:25:56;;;;;;;3.97;1.20;;;;;;;;;;5026483;28;20045;-72
2022/05/23 01:28:21;;;;;;;1.73;1.00;;;;;;;;;;5025678;28;20047;-72
2022/05/23 01:30:47;;;;;;;5.05;1.25;;;;;;;;;;5024533;28;20644;-71
2022/05/23 01:33:13;;;;;;;2.42;1.25;;;;;;;;;;5025100;28;20110;-71
2022/05/23 01:35:40;;;;;;;2.72;1.20;;;;;;;;;;5025571;28;20708;-71
2022/05/23 01:38:06;;;;;;;2.08;1.10;;;;;;;;;;5025861;28;20040;-72
2022/05/23 01:40:32;;;;;;;3.53;1.10;;;;;;;;;;5020105;28;20107;-71
2022/05/23 01:42:58;;;;;;;2.72;1.38;;;;;;;;;;5006836;28;20044;-70
2022/05/23 01:45:31;;;;;;;3.30;1.25;;;;;;;;;;5024169;28;20045;-70
2022/05/23 01:47:57;;;;;;;3.70;1.45;;;;;;;;;;5024143;28;20051;-71
2022/05/23 01:50:24;;;;;;;1.75;1.20;;;;;;;;;;5022306;28;20033;-71
2022/05/23 01:52:51;;;;;;;2.22;1.30;;;;;;;;;;5023170;28;20037;-71
2022/05/23 01:55:17;;;;;;;1.90;1.10;;;;;;;;;;5024581;28;20032;-72
2022/05/23 01:57:43;;;;;;;3.72;1.60;;;;;;;;;;5006230;28;20457;-72
2022/05/23 02:02:54;;;;;;;3.28;1.20;;;;;;;;;;5025197;28;20511;-72
2022/05/23 02:05:20;;;;;;;2.30;1.20;;;;;;;;;;5024663;28;20041;-71
2022/05/23 02:07:46;;;;;;;2.45;1.25;;;;;;;;;;5024406;28;20045;-70
2022/05/23 02:10:13;;;;;;;1.83;1.10;;;;;;;;;;5024068;28;20091;-70
2022/05/23 02:12:38;;;;;;;1.25;1.10;;;;;;;;;;5024442;28;20760;-72
2022/05/23 02:15:05;;;;;;;4.07;1.60;;;;;;;;;;5023499;28;20041;-72
2022/05/23 02:17:31;;;;;;;3.20;1.10;;;;;;;;;;5023858;28;20020;-72
2022/05/23 02:19:57;;;;;;;4.95;1.50;;;;;;;;;;5025401;28;20048;-71
2022/05/23 02:22:22;;;;;;;3.10;1.27;;;;;;;;;;5022978;28;20071;-71
2022/05/23 02:24:48;;;;;;;4.45;1.38;;;;;;;;;;5023736;28;20037;-70
2022/05/23 02:27:13;;;;;;;4.78;1.30;;;;;;;;;;5020875;28;21218;-71
2022/05/23 02:29:39;;;;;;;1.50;1.05;;;;;;;;;;5025933;28;20037;-70
2022/05/23 02:32:05;;;;;;;2.53;1.30;;;;;;;;;;5024055;28;20020;-70
2022/05/23 02:34:31;;;;;;;2.40;1.50;;;;;;;;;;5023560;28;20477;-69
2022/05/23 02:36:56;;;;;;;3.17;1.27;;;;;;;;;;5021645;28;20113;-72
2022/05/23 02:39:22;;;;;;;3.20;1.27;;;;;;;;;;5022655;28;20045;-70
2022/05/23 02:41:48;;;;;;;1.48;1.05;;;;;;;;;;5024520;28;20076;-71
2022/05/23 02:44:13;;;;;;;3.40;1.33;;;;;;;;;;5020078;28;20045;-71
2022/05/23 02:46:39;;;;;;;3.10;1.20;;;;;;;;;;5020391;28;20167;-71
2022/05/23 02:49:06;;;;;;;3.03;1.25;;;;;;;;;;5022693;28;20037;-69
2022/05/23 02:51:32;;;;;;;2.25;1.20;;;;;;;;;;5021152;28;20170;-69
2022/05/23 02:53:57;;;;;;;3.70;1.38;;;;;;;;;;5023269;28;20067;-72
2022/05/23 02:56:23;;;;;;;3.00;1.15;;;;;;;;;;5020580;28;20540;-70
2022/05/23 02:58:48;;;;;;;2.80;1.30;;;;;;;;;;5011219;28;20567;-70
2022/05/23 03:01:13;;;;;;;3.03;1.48;;;;;;;;;;5021772;28;20041;-70
2022/05/23 03:03:39;;;;;;;3.58;1.38;;;;;;;;;;5021694;28;20087;-69
2022/05/23 03:06:05;;;;;;;4.53;1.50;;;;;;;;;;5023396;28;20105;-72
2022/05/23 03:08:32;;;;;;;5.10;1.70;;;;;;;;;;5023062;28;20033;-69
2022/05/23 03:10:59;;;;;;;6.18;1.77;;;;;;;;;;5023130;28;20604;-70
2022/05/23 03:13:25;;;;;;;2.45;1.27;;;;;;;;;;5021694;28;20709;-70
2022/05/23 03:15:51;;;;;;;5.50;1.20;;;;;;;;;;5022479;28;20175;-70
2022/05/23 03:18:17;;;;;;;3.70;1.42;;;;;;;;;;5021936;28;20053;-71
2022/05/23 03:20:43;;;;;;;6.82;1.00;;;;;;;;;;5005726;28;20476;-69
2022/05/23 03:28:39;;;;;;;3.50;1.65;;;;;;;;;;5022647;28;20047;-69
2022/05/23 03:31:05;;;;;;;3.22;1.50;;;;;;;;;;5025180;28;20040;-71
2022/05/23 03:33:31;;;;;;;3.33;1.60;;;;;;;;;;5022569;28;20147;-72
2022/05/23 03:35:57;;;;;;;2.95;1.35;;;;;;;;;;5022868;28;20041;-71
2022/05/23 03:38:22;;;;;;;4.13;1.55;;;;;;;;;;5022467;28;20637;-69
2022/05/23 03:40:49;;;;;;;3.00;1.27;;;;;;;;;;5023906;28;20388;-70
2022/05/23 03:43:15;;;;;;;3.58;1.40;;;;;;;;;;5017465;28;20184;-70
2022/05/23 03:45:41;;;;;;;2.70;1.27;;;;;;;;;;5022336;28;20044;-71
2022/05/23 03:48:08;;;;;;;4.15;1.40;;;;;;;;;;5022401;28;20048;-70
2022/05/23 03:50:36;;;;;;;3.53;1.40;;;;;;;;;;5005133;28;20377;-70
2022/05/23 03:53:02;;;;;;;3.58;1.35;;;;;;;;;;5022044;28;20032;-69
2022/05/23 03:55:28;;;;;;;3.80;1.73;;;;;;;;;;5022155;28;20041;-69
2022/05/23 03:57:54;;;;;;;3.25;1.17;;;;;;;;;;5021438;28;20045;-73
2022/05/23 04:00:20;;;;;;;2.30;1.30;;;;;;;;;;5021426;28;20037;-70
2022/05/23 04:02:45;;;;;;;2.45;1.50;;;;;;;;;;5017387;28;20032;-70
2022/05/23 04:05:14;;;;;;;3.75;1.38;;;;;;;;;;5022997;28;20533;-70
2022/05/23 04:07:40;;;;;;;3.22;1.33;;;;;;;;;;5020919;28;20501;-70
2022/05/23 04:10:09;;;;;;;3.03;1.52;;;;;;;;;;5003407;28;20037;-71
2022/05/23 04:12:34;;;;;;;3.40;1.88;;;;;;;;;;5022291;28;20168;-70
2022/05/23 04:14:59;;;;;;;4.97;1.83;;;;;;;;;;5026596;28;20036;-72
2022/05/23 04:17:25;;;;;;;2.30;1.70;;;;;;;;;;5026504;28;20070;-69
2022/05/23 04:19:50;;;;;;;3.00;1.75;;;;;;;;;;4998537;28;20042;-69
2022/05/23 04:22:16;;;;;;;3.67;2.00;;;;;;;;;;5006051;28;20550;-70
2022/05/23 04:24:41;;;;;;;3.90;1.90;;;;;;;;;;5005462;28;20045;-70
2022/05/23 04:27:06;;;;;;;5.60;2.30;;;;;;;;;;5011376;28;20061;-72
2022/05/23 04:29:32;;;;;;;5.15;1.63;;;;;;;;;;5027179;28;20104;-71
2022/05/23 04:31:57;;;;;;;5.53;3.08;;;;;;;;;;5006668;28;20826;-70
2022/05/23 04:37:07;;;;;;;2.75;1.67;;;;;;;;;;5025029;28;20044;-71
2022/05/23 04:39:32;;;;;;;3.30;1.73;;;;;;;;;;5025449;28;20462;-70
2022/05/23 04:42:00;;;;;;;3.90;1.80;;;;;;;;;;5023257;28;20137;-69
2022/05/23 04:44:26;;;;;;;3.28;1.90;;;;;;;;;;5025603;28;20051;-69
2022/05/23 04:49:41;;;;;;;5.00;2.10;;;;;;;;;;5025703;28;20091;-71
2022/05/23 04:52:09;;;;;;;5.45;1.90;;;;;;;;;;5006857;28;20055;-70
2022/05/23 04:54:36;;;;;;;4.57;1.90;;;;;;;;;;5024974;28;20033;-71
2022/05/23 04:57:01;;;;;;;6.65;2.10;;;;;;;;;;5026076;28;20576;-69
2022/05/23 04:59:27;;;;;;;8.30;2.38;;;;;;;;;;5023667;28;20033;-71
2022/05/23 05:01:52;;;;;;;6.68;2.30;;;;;;;;;;5024407;28;20048;-69
2022/05/23 05:04:17;;;;;;;7.00;2.30;;;;;;;;;;5026166;28;20037;-71
2022/05/23 05:06:44;;;;;;;9.50;2.67;;;;;;;;;;5024663;28;20045;-70
2022/05/23 05:09:10;;;;;;;14.82;2.70;;;;;;;;;;5024768;28;20041;-71
2022/05/23 05:11:37;;;;;;;10.38;2.30;;;;;;;;;;5025883;28;20114;-70
2022/05/23 05:14:04;;;;;;;7.80;2.60;;;;;;;;;;5026117;28;20512;-72
2022/05/23 05:16:31;;;;;;;7.13;2.50;;;;;;;;;;5025062;28;20095;-71
2022/05/23 05:18:58;;;;;;;6.40;3.00;;;;;;;;;;5024355;28;20098;-70
2022/05/23 05:21:23;;;;;;;8.77;2.70;;;;;;;;;;5023140;28;20100;-69
2022/05/23 05:23:49;;;;;;;5.80;2.45;;;;;;;;;;5020280;28;20033;-71
2022/05/23 05:26:14;;;;;;;6.80;2.13;;;;;;;;;;5024648;28;20082;-69
2022/05/23 05:28:40;;;;;;;6.38;2.65;;;;;;;;;;5025826;28;20098;-72
2022/05/23 05:31:12;;;;;;;6.30;2.85;;;;;;;;;;5025790;28;20049;-69
2022/05/23 05:33:49;;;;;;;4.93;2.50;;;;;;;;;;5026061;28;20491;-70
2022/05/23 05:36:21;;;;;;;6.20;2.40;;;;;;;;;;5026013;28;20652;-70
2022/05/23 05:38:57;;;;;;;10.07;2.40;;;;;;;;;;5025102;28;20152;-70
2022/05/23 05:41:28;;;;;;;6.22;2.63;;;;;;;;;;5024450;28;20037;-70
2022/05/23 05:44:07;;;;;;;5.70;2.13;;;;;;;;;;5026891;28;20064;-70
2022/05/23 05:46:57;;;;;;;5.75;3.38;;;;;;;;;;5006769;28;20049;-71
2022/05/23 05:49:28;;;;;;;6.70;3.05;;;;;;;;;;5025058;28;20045;-70
2022/05/23 05:52:00;;;;;;;5.10;2.20;;;;;;;;;;5024818;28;20036;-72
2022/05/23 05:54:28;;;;;;;7.60;2.53;;;;;;;;;;5025632;28;20470;-71
2022/05/23 05:56:54;;;;;;;7.72;2.65;;;;;;;;;;5024681;28;20511;-70
2022/05/23 05:59:20;;;;;;;3.63;2.22;;;;;;;;;;5006705;28;20024;-70
2022/05/23 06:01:45;;;;;;;5.32;2.47;;;;;;;;;;5025034;28;20067;-70
2022/05/23 06:04:11;;;;;;;4.95;2.80;;;;;;;;;;5024653;28;20037;-70
2022/05/23 06:12:05;;;;;;;19.67;4.25;;;;;;;;;;5024221;28;20524;-70
2022/05/23 06:14:30;;;;;;;12.40;3.90;;;;;;;;;;5024141;28;20036;-71
2022/05/23 06:16:55;;;;;;;9.77;3.63;;;;;;;;;;5025248;28;20494;-71
2022/05/23 06:19:22;;;;;;;10.23;2.80;;;;;;;;;;5025073;28;20048;-68
2022/05/23 06:21:47;;;;;;;10.75;3.00;;;;;;;;;;5024077;28;20540;-68
2022/05/23 06:24:13;;;;;;;7.45;2.53;;;;;;;;;;5026325;28;20052;-70
2022/05/23 06:26:38;;;;;;;8.38;3.00;;;;;;;;;;5025365;28;20515;-68
2022/05/23 06:29:04;;;;;;;7.38;2.97;;;;;;;;;;5026995;28;21097;-71
2022/05/23 06:31:29;;;;;;;5.63;2.70;;;;;;;;;;5024921;28;20448;-71
2022/05/23 06:33:55;;;;;;;5.15;2.60;;;;;;;;;;5024750;28;20045;-70
2022/05/23 06:36:21;;;;;;;4.05;2.63;;;;;;;;;;5024503;28;20037;-71
2022/05/23 06:38:47;;;;;;;5.53;2.40;;;;;;;;;;5024014;28;20028;-70
2022/05/23 06:41:13;;;;;;;4.85;2.63;;;;;;;;;;5023546;28;20035;-70
2022/05/23 06:43:40;;;;;;;3.63;2.47;;;;;;;;;;5023761;28;22760;-70
2022/05/23 06:46:05;;;;;;;7.40;2.47;;;;;;;;;;5025101;28;20527;-69
2022/05/23 06:48:32;;;;;;;4.47;2.17;;;;;;;;;;5024169;28;20037;-70
2022/05/23 06:50:57;;;;;;;3.47;2.45;;;;;;;;;;5023826;28;20044;-69
2022/05/23 06:53:24;;;;;;;8.43;2.47;;;;;;;;;;5024216;28;20033;-68
2022/05/23 06:55:51;;;;;;;6.40;2.90;;;;;;;;;;5022744;28;20676;-70
2022/05/23 06:58:19;;;;;;;7.47;3.10;;;;;;;;;;5023489;28;20491;-68
2022/05/23 07:00:45;;;;;;;5.10;2.30;;;;;;;;;;5021891;28;20075;-72
2022/05/23 07:03:10;;;;;;;3.72;2.40;;;;;;;;;;5023733;28;20560;-71
2022/05/23 07:13:49;;;;;;;3.95;2.38;;;;;;;;;;5026245;28;20056;-70
2022/05/23 07:16:17;;;;;;;7.13;2.60;;;;;;;;;;5024507;28;20034;-70
2022/05/23 07:18:43;;;;;;;9.52;2.20;;;;;;;;;;5025981;28;20045;-69
2022/05/23 07:21:08;;;;;;;4.35;2.53;;;;;;;;;;5024123;28;20760;-70
2022/05/23 07:23:37;;;;;;;10.73;2.83;;;;;;;;;;5025552;28;20437;-69
2022/05/23 07:26:05;;;;;;;6.18;2.28;;;;;;;;;;5024688;28;20041;-69
2022/05/23 07:28:30;;;;;;;3.70;2.22;;;;;;;;;;5023826;28;20045;-69
2022/05/23 07:30:56;;;;;;;4.50;2.33;;;;;;;;;;5023355;28;20072;-69
2022/05/23 07:33:21;;;;;;;4.35;2.08;;;;;;;;;;5024233;28;22583;-69
2022/05/23 07:35:56;;;;;;;3.92;2.20;;;;;;;;;;5024442;28;20495;-69
2022/05/23 07:38:21;;;;;;;4.20;2.33;;;;;;;;;;5024174;28;20033;-69
2022/05/23 07:40:50;;;;;;;4.53;2.22;;;;;;;;;;5025098;28;20033;-69
2022/05/23 07:43:16;;;;;;;7.25;2.47;;;;;;;;;;5024116;28;20033;-71
2022/05/23 07:45:42;;;;;;;6.57;2.70;;;;;;;;;;5024682;28;20036;-70
2022/05/23 07:48:08;;;;;;;5.50;2.63;;;;;;;;;;5028804;28;20336;-71
2022/05/23 07:50:33;;;;;;;5.35;2.40;;;;;;;;;;5027748;28;20060;-71
2022/05/23 08:01:11;;;;;;;3.65;2.10;;;;;;;;;;5026215;28;20048;-72
2022/05/23 08:03:36;;;;;;;5.75;2.10;;;;;;;;;;5024733;28;20037;-71
2022/05/23 08:06:02;;;;;;;7.78;2.45;;;;;;;;;;5025821;28;21521;-71
2022/05/23 08:08:27;;;;;;;6.32;2.20;;;;;;;;;;5027171;28;20029;-68
2022/05/23 08:10:53;;;;;;;4.43;2.50;;;;;;;;;;5026420;28;20101;-70
2022/05/23 08:13:18;;;;;;;5.55;2.20;;;;;;;;;;5004832;28;20034;-70
2022/05/23 08:15:44;;;;;;;6.28;2.60;;;;;;;;;;5005561;28;20124;-69
2022/05/23 08:18:10;;;;;;;3.45;2.33;;;;;;;;;;5004572;28;20034;-71
2022/05/23 08:20:37;;;;;;;2.75;2.05;;;;;;;;;;5006220;28;20033;-71
2022/05/23 08:23:03;;;;;;;5.20;3.03;;;;;;;;;;5002521;28;20108;-71
2022/05/23 08:25:29;;;;;;;7.60;2.80;;;;;;;;;;5004391;28;20049;-69
2022/05/23 08:27:54;;;;;;;3.40;1.90;;;;;;;;;;5014947;28;20033;-71
2022/05/23 08:30:21;;;;;;;5.88;2.33;;;;;;;;;;5026592;28;20098;-70
2022/05/23 08:32:46;;;;;;;7.32;2.67;;;;;;;;;;5026244;28;20032;-70
2022/05/23 08:35:12;;;;;;;7.53;2.78;;;;;;;;;;5027710;28;20036;-70
2022/05/23 08:37:38;;;;;;;3.72;2.72;;;;;;;;;;5005828;28;20049;-71
2022/05/23 08:40:06;;;;;;;6.63;3.20;;;;;;;;;;5016764;28;20041;-70
2022/05/23 08:42:56;;;;;;;7.60;3.17;;;;;;;;;;5027094;28;20113;-69
2022/05/23 08:45:34;;;;;;;9.35;3.40;;;;;;;;;;5025111;28;20039;-71
2022/05/23 08:48:23;;;;;;;9.15;3.60;;;;;;;;;;5026466;28;20103;-70
2022/05/23 08:51:07;;;;;;;8.82;3.20;;;;;;;;;;5022728;28;20033;-67
2022/05/23 08:53:40;;;;;;;7.22;3.33;;;;;;;;;;5028229;28;20131;-71
2022/05/23 08:56:31;;;;;;;6.70;3.58;;;;;;;;;;5025125;28;20089;-70
2022/05/23 08:59:01;;;;;;;7.07;3.10;;;;;;;;;;5024660;28;20045;-69
2022/05/23 09:01:40;;;;;;;9.18;3.38;;;;;;;;;;5024471;28;20037;-69
2022/05/23 09:04:13;;;;;;;6.80;3.13;;;;;;;;;;5025933;28;20821;-70
2022/05/23 09:06:47;;;;;;;6.88;2.55;;;;;;;;;;5024955;28;20495;-70
2022/05/23 09:09:17;;;;;;;5.60;3.25;;;;;;;;;;5025179;28;20041;-71
2022/05/23 09:11:45;;;;;;;6.78;3.30;;;;;;;;;;5025697;28;20033;-69
2022/05/23 09:14:13;;;;;;;6.53;3.17;;;;;;;;;;5023392;28;20036;-70
2022/05/23 09:16:54;;;;;;;8.95;3.67;;;;;;;;;;5029372;28;20040;-69
2022/05/23 09:19:28;;;;;;;4.53;3.00;;;;;;;;;;5027031;28;20052;-70
2022/05/23 09:22:15;;;;;;;5.72;2.30;;;;;;;;;;5026903;28;20059;-70
2022/05/23 09:25:06;;;;;;;4.38;2.67;;;;;;;;;;5022124;28;20584;-69
2022/05/23 09:27:39;;;;;;;5.10;2.85;;;;;;;;;;5019559;28;20412;-68
2022/05/23 09:30:10;;;;;;;8.65;3.05;;;;;;;;;;5023741;28;20094;-68
2022/05/23 09:32:43;;;;;;;7.30;2.88;;;;;;;;;;5023168;28;20095;-72
2022/05/23 09:35:17;;;;;;;3.95;2.97;;;;;;;;;;5005712;28;20033;-73
2022/05/23 09:37:46;;;;;;;6.50;3.15;;;;;;;;;;5025917;28;20037;-70
2022/05/23 09:40:33;;;;;;;5.47;3.35;;;;;;;;;;5024207;28;20478;-70
2022/05/23 09:49:06;;;;;;;5.70;2.67;;;;;;;;;;5025001;28;20558;-70
2022/05/23 09:51:33;;;;;;;3.97;2.85;;;;;;;;;;5026238;28;20060;-70
2022/05/23 09:54:02;;;;;;;11.73;3.35;;;;;;;;;;5025990;28;20084;-70
2022/05/23 09:56:34;;;;;;;3.70;2.70;;;;;;;;;;5027527;28;20029;-70
2022/05/23 09:59:03;;;;;;;5.80;2.30;;;;;;;;;;5025701;28;20049;-68
2022/05/23 10:01:32;;;;;;;4.47;2.10;;;;;;;;;;5024362;28;20033;-69
2022/05/23 10:03:58;;;;;;;4.78;1.88;;;;;;;;;;5026718;28;20041;-69
2022/05/23 10:06:42;;;;;;;5.90;1.92;;;;;;;;;;5027404;28;20117;-70
2022/05/23 10:09:21;;;;;;;3.55;2.15;;;;;;;;;;5026223;28;20504;-70
2022/05/23 10:11:53;;;;;;;4.30;1.73;;;;;;;;;;5028869;28;20029;-69
2022/05/23 10:14:19;;;;;;;4.47;1.77;;;;;;;;;;5010251;28;20059;-70
2022/05/23 10:16:50;;;;;;;4.82;1.90;;;;;;;;;;5024110;28;20504;-71
2022/05/23 10:19:31;;;;;;;5.63;1.80;;;;;;;;;;5023260;28;20079;-70
2022/05/23 10:22:13;;;;;;;4.03;2.28;;;;;;;;;;5023016;28;20048;-71
2022/05/23 10:24:48;;;;;;;6.13;2.08;;;;;;;;;;5022961;28;20120;-71
2022/05/23 10:27:19;;;;;;;3.33;1.85;;;;;;;;;;5025940;28;20481;-69
2022/05/23 10:30:00;;;;;;;4.32;2.00;;;;;;;;;;5025336;28;20025;-71
2022/05/23 10:32:42;;;;;;;4.10;2.42;;;;;;;;;;5027120;28;20040;-70
2022/05/23 10:35:34;;;;;;;3.92;2.20;;;;;;;;;;5025302;28;20048;-70
2022/05/23 10:44:05;;;;;;;3.05;1.95;;;;;;;;;;5007327;28;20519;-68
2022/05/23 10:46:36;;;;;;;5.43;1.80;;;;;;;;;;4993317;28;20045;-69
2022/05/23 10:49:16;;;;;;;3.45;2.03;;;;;;;;;;5018755;28;20477;-71
2022/05/23 10:52:03;;;;;;;3.90;2.00;;;;;;;;;;5006106;28;20614;-70
2022/05/23 10:54:46;;;;;;;4.50;2.20;;;;;;;;;;5004235;28;20118;-70
2022/05/23 10:57:33;;;;;;;4.85;2.28;;;;;;;;;;5006914;28;20041;-70
2022/05/23 11:00:06;;;;;;;6.35;2.25;;;;;;;;;;5006766;28;20493;-70
2022/05/23 11:02:39;;;;;;;5.00;2.20;;;;;;;;;;5007478;28;20548;-69
2022/05/23 11:05:25;;;;;;;4.90;2.10;;;;;;;;;;5003839;28;20064;-69
2022/05/23 11:08:00;;;;;;;4.68;2.17;;;;;;;;;;5002155;28;20037;-69
2022/05/23 11:10:51;;;;;;;6.57;2.63;;;;;;;;;;5001972;28;20458;-69
2022/05/23 11:13:38;;;;;;;7.88;2.55;;;;;;;;;;5017800;28;20045;-68
2022/05/23 11:16:18;;;;;;;2.97;2.10;;;;;;;;;;5023422;28;20435;-69
2022/05/23 11:18:59;;;;;;;6.78;2.15;;;;;;;;;;5010875;28;20596;-70
2022/05/23 11:21:58;;;;;;;5.55;2.92;;;;;;;;;;5012743;28;20094;-69
2022/05/23 11:24:30;;;;;;;3.55;2.63;;;;;;;;;;5023851;28;20468;-71
2022/05/23 11:35:23;;;;;;;4.13;2.45;;;;;;;;;;5026110;28;20048;-69
2022/05/23 11:37:50;;;;;;;5.68;2.10;;;;;;;;;;5024836;28;20041;-70
2022/05/23 11:40:30;;;;;;;5.57;2.25;;;;;;;;;;5029617;28;20496;-70
2022/05/23 11:43:00;;;;;;;5.43;2.28;;;;;;;;;;5027382;28;20037;-69
2022/05/23 11:46:02;;;;;;;5.82;2.78;;;;;;;;;;5027224;28;20041;-70
2022/05/23 11:48:38;;;;;;;6.88;2.65;;;;;;;;;;5026209;28;20152;-68
2022/05/23 11:51:21;;;;;;;6.32;2.30;;;;;;;;;;5027117;28;22246;-69
2022/05/23 11:54:06;;;;;;;4.85;2.55;;;;;;;;;;5027003;28;20029;-70
2022/05/23 11:56:44;;;;;;;7.05;2.40;;;;;;;;;;5028872;28;20034;-70
2022/05/23 11:59:33;;;;;;;6.90;2.60;;;;;;;;;;5024842;28;20484;-68
2022/05/23 12:02:08;;;;;;;5.47;2.55;;;;;;;;;;5025346;28;20048;-69
2022/05/23 12:04:48;;;;;;;4.82;2.55;;;;;;;;;;5025192;28;20102;-69
2022/05/23 12:07:42;;;;;;;5.47;2.20;;;;;;;;;;5026189;28;20045;-68
2022/05/23 12:10:22;;;;;;;4.45;2.20;;;;;;;;;;5028476;28;20469;-69
2022/05/23 12:12:55;;;;;;;7.45;2.45;;;;;;;;;;5027828;28;20389;-71
2022/05/23 12:15:44;;;;;;;5.78;2.15;;;;;;;;;;5009585;28;22498;-70
2022/05/23 12:18:34;;;;;;;4.22;1.92;;;;;;;;;;5013346;28;20029;-70
2022/05/23 12:21:03;;;;;;;3.88;2.00;;;;;;;;;;5027764;28;20037;-69
2022/05/23 12:23:31;;;;;;;4.05;2.40;;;;;;;;;;5029898;28;20159;-69
2022/05/23 12:26:12;;;;;;;11.20;3.28;;;;;;;;;;5021505;28;20509;-69
2022/05/23 12:28:52;;;;;;;9.50;2.97;;;;;;;;;;5023344;28;20511;-68
2022/05/23 12:31:22;;;;;;;6.15;3.15;;;;;;;;;;5008417;28;20359;-68
2022/05/23 12:33:52;;;;;;;6.18;2.63;;;;;;;;;;5009378;28;20359;-68
2022/05/23 12:36:26;;;;;;;5.40;2.42;;;;;;;;;;5005036;28;20079;-67
2022/05/23 12:39:16;;;;;;;5.53;2.80;;;;;;;;;;5012682;28;20127;-68
2022/05/23 12:42:17;;;;;;;5.63;2.92;;;;;;;;;;5027622;28;20547;-70
2022/05/23 12:45:16;;;;;;;4.35;2.60;;;;;;;;;;5016082;28;20037;-69
2022/05/23 12:48:04;;;;;;;7.75;2.97;;;;;;;;;;5004204;28;20047;-69
2022/05/23 12:50:55;;;;;;;7.82;3.88;;;;;;;;;;5005406;28;20623;-67
2022/05/23 12:53:36;;;;;;;6.88;3.25;;;;;;;;;;5012676;28;20063;-68
2022/05/23 12:56:23;;;;;;;8.60;3.22;;;;;;;;;;4999427;28;20123;-69
2022/05/23 12:59:34;;;;;;;5.18;2.92;;;;;;;;;;5000817;28;20484;-68
2022/05/23 13:02:05;;;;;;;5.38;2.65;;;;;;;;;;5016434;28;20107;-69
2022/05/23 13:05:13;;;;;;;8.02;3.10;;;;;;;;;;5008120;28;20029;-68
2022/05/23 13:08:21;;;;;;;5.82;3.10;;;;;;;;;;4961114;28;20126;-69
2022/05/23 13:11:14;;;;;;;4.72;3.08;;;;;;;;;;4984586;28;20635;-69
2022/05/23 13:13:44;;;;;;;5.70;2.90;;;;;;;;;;5001598;28;20036;-68
2022/05/23 13:16:18;;;;;;;4.43;2.90;;;;;;;;;;4986832;28;20401;-69
2022/05/23 13:27:04;;;;;;;4.88;2.70;;;;;;;;;;4996909;28;20473;-73
2022/05/23 13:29:32;;;;;;;10.02;3.08;;;;;;;;;;4998291;28;20061;-70
2022/05/23 13:32:04;;;;;;;3.97;2.50;;;;;;;;;;5001251;28;20119;-71
2022/05/23 13:34:34;;;;;;;6.10;2.63;;;;;;;;;;5012638;28;20597;-70
2022/05/23 13:37:00;;;;;;;8.65;2.85;;;;;;;;;;5023614;28;20397;-72
2022/05/23 13:39:26;;;;;;;3.70;2.67;;;;;;;;;;5024409;28;20036;-69
2022/05/23 13:41:51;;;;;;;6.32;3.22;;;;;;;;;;5005423;28;20049;-71
2022/05/23 13:44:28;;;;;;;4.57;2.50;;;;;;;;;;5005149;28;20095;-71
2022/05/23 13:47:26;;;;;;;5.43;2.88;;;;;;;;;;5003824;28;20128;-72
2022/05/23 13:50:19;;;;;;;5.63;2.65;;;;;;;;;;5003912;28;20099;-71
2022/05/23 13:52:52;;;;;;;6.07;2.90;;;;;;;;;;4998452;28;20041;-71
2022/05/23 13:55:32;;;;;;;5.90;2.70;;;;;;;;;;5001769;28;20022;-71
2022/05/23 13:58:21;;;;;;;4.65;2.97;;;;;;;;;;5004861;28;20029;-69
2022/05/23 14:00:57;;;;;;;3.95;2.70;;;;;;;;;;5000826;28;20402;-70
2022/05/23 14:03:28;;;;;;;8.52;2.67;;;;;;;;;;5001770;28;20156;-69
2022/05/23 14:05:55;;;;;;;6.22;2.80;;;;;;;;;;5006262;28;20048;-69
2022/05/23 14:08:33;;;;;;;5.35;3.08;;;;;;;;;;5001795;28;20075;-72
2022/05/23 14:11:20;;;;;;;8.27;3.40;;;;;;;;;;5002471;28;20048;-71
2022/05/23 14:13:46;;;;;;;8.25;2.70;;;;;;;;;;5005111;28;20030;-69
2022/05/23 14:16:16;;;;;;;7.90;2.70;;;;;;;;;;5002935;28;20473;-70
2022/05/23 14:18:42;;;;;;;6.93;3.00;;;;;;;;;;5005887;28;20037;-71
2022/05/23 14:21:32;;;;;;;5.72;2.90;;;;;;;;;;5002980;28;21286;-70
2022/05/23 14:23:58;;;;;;;5.00;2.83;;;;;;;;;;5003575;28;20413;-70
2022/05/23 14:26:24;;;;;;;5.25;2.85;;;;;;;;;;5002783;28;21334;-69
2022/05/23 14:28:52;;;;;;;5.68;3.30;;;;;;;;;;5003604;28;20037;-68
2022/05/23 14:31:37;;;;;;;6.32;3.30;;;;;;;;;;5003378;28;20037;-69
2022/05/23 14:34:08;;;;;;;6.70;2.90;;;;;;;;;;5016111;28;20075;-70
2022/05/23 14:36:34;;;;;;;6.68;3.47;;;;;;;;;;5004847;28;20080;-70
2022/05/23 14:39:04;;;;;;;8.57;3.28;;;;;;;;;;5003749;28;20526;-71
2022/05/23 14:41:35;;;;;;;3.13;2.70;;;;;;;;;;5003442;28;20080;-68
2022/05/23 14:44:00;;;;;;;7.80;2.95;;;;;;;;;;5003404;28;20030;-69
2022/05/23 14:46:37;;;;;;;5.20;2.38;;;;;;;;;;5002579;28;20048;-68
2022/05/23 14:49:10;;;;;;;4.78;2.70;;;;;;;;;;5003374;28;20782;-69
2022/05/23 14:51:38;;;;;;;8.35;2.80;;;;;;;;;;5002864;28;20815;-69
2022/05/23 14:56:56;;;;;;;5.53;2.55;;;;;;;;;;5003447;28;20461;-70
2022/05/23 15:02:45;;;;;;;5.60;2.40;;;;;;;;;;5004099;28;20076;-70
2022/05/23 15:05:11;;;;;;;5.65;3.08;;;;;;;;;;5002676;28;20045;-69
2022/05/23 15:07:37;;;;;;;6.38;2.60;;;;;;;;;;5003946;28;20378;-69
2022/05/23 15:10:03;;;;;;;6.88;2.70;;;;;;;;;;5004921;28;20064;-70
2022/05/23 15:12:29;;;;;;;6.35;2.40;;;;;;;;;;5004497;28;20050;-68
2022/05/23 15:14:55;;;;;;;5.00;2.75;;;;;;;;;;5005282;28;20049;-69
2022/05/23 15:17:25;;;;;;;6.50;2.47;;;;;;;;;;5001123;28;20339;-69
2022/05/23 15:19:51;;;;;;;5.57;2.53;;;;;;;;;;5003672;28;20408;-69
2022/05/23 15:22:23;;;;;;;5.60;2.60;;;;;;;;;;5001469;28;20353;-69
2022/05/23 15:24:48;;;;;;;7.37;2.50;;;;;;;;;;5003679;28;20076;-69
2022/05/23 15:27:21;;;;;;;5.68;3.42;;;;;;;;;;5000406;28;20683;-69
2022/05/23 15:29:47;;;;;;;7.30;2.75;;;;;;;;;;5002828;28;20080;-70
2022/05/23 15:32:13;;;;;;;9.20;2.55;;;;;;;;;;5001748;28;20033;-70
2022/05/23 15:34:39;;;;;;;9.10;2.72;;;;;;;;;;5001191;28;20041;-70
2022/05/23 15:37:05;;;;;;;7.72;2.80;;;;;;;;;;5002138;28;20051;-69
2022/05/23 15:39:31;;;;;;;4.95;2.33;;;;;;;;;;5018117;28;20641;-67
2022/05/23 15:41:56;;;;;;;4.80;2.40;;;;;;;;;;5024163;28;20151;-69
2022/05/23 15:44:33;;;;;;;5.15;2.40;;;;;;;;;;5022238;28;22066;-69
2022/05/23 15:47:00;;;;;;;6.05;2.45;;;;;;;;;;5021217;28;20032;-72
2022/05/23 15:49:26;;;;;;;5.28;2.67;;;;;;;;;;5000662;28;20040;-72
2022/05/23 15:51:52;;;;;;;9.32;2.70;;;;;;;;;;5020603;28;20079;-72
2022/05/23 15:54:18;;;;;;;6.32;2.63;;;;;;;;;;5021548;28;20037;-71
2022/05/23 15:56:44;;;;;;;6.20;2.47;;;;;;;;;;5022886;28;20423;-70
2022/05/23 15:59:10;;;;;;;9.10;2.53;;;;;;;;;;5003456;28;20033;-70
2022/05/23 16:01:35;;;;;;;4.68;2.67;;;;;;;;;;5023369;28;20040;-69
2022/05/23 16:04:01;;;;;;;5.28;3.10;;;;;;;;;;5018909;28;20114;-71
2022/05/23 16:06:26;;;;;;;6.93;2.65;;;;;;;;;;5023101;28;20048;-69
2022/05/23 16:08:52;;;;;;;7.65;2.63;;;;;;;;;;5025758;28;20492;-70
2022/05/23 16:11:22;;;;;;;6.03;2.50;;;;;;;;;;5026575;28;20404;-70
2022/05/23 16:13:48;;;;;;;6.30;2.35;;;;;;;;;;5025963;28;20029;-69
2022/05/23 16:16:14;;;;;;;8.35;2.85;;;;;;;;;;5025054;28;20041;-70
2022/05/23 16:18:40;;;;;;;6.72;2.53;;;;;;;;;;5026166;28;20152;-69